sensor_id;sensor_type;location;lat;lon;timestamp;temperature;humidity
54846;DHT22;53889;50.084;8.646;2022-11-13T00:02:02;6.10;99.90
54846;DHT22;53889;50.084;8.646;2022-11-13T00:04:49;6.00;99.90
54846;DHT22;53889;50.084;8.646;2022-11-13T00:07:34;5.80;99.90
54846;DHT22;53889;50.084;8.646;2022-11-13T00:10:20;5.90;99.90
54846;DHT22;53889;50.084;8.646;2022-11-13T00:13:05;5.80;99.90
54846;DHT22;53889;50.084;8.646;2022-11-13T00:15:56;5.80;99.90
54846;DHT22;53889;50.084;8.646;2022-11-13T00:18:42;5.80;99.90
54846;DHT22;53889;50.084;8.646;2022-11-13T00:21:29;5.80;99.90
54846;DHT22;53889;50.084;8.646;2022-11-13T00:24:14;5.80;99.90
54846;DHT22;53889;50.084;8.646;2022-11-13T00:27:00;5.80;99.90
54846;DHT22;53889;50.084;8.646;2022-11-13T00:29:45;5.80;99.90
54846;DHT22;53889;50.084;8.646;2022-11-13T00:32:31;5.80;99.90
54846;DHT22;53889;50.084;8.646;2022-11-13T00:35:16;5.80;99.90
54846;DHT22;53889;50.084;8.646;2022-11-13T00:38:03;5.80;99.90
54846;DHT22;53889;50.084;8.646;2022-11-13T00:40:48;5.80;99.90
54846;DHT22;53889;50.084;8.646;2022-11-13T00:43:34;5.80;99.90
54846;DHT22;53889;50.084;8.646;2022-11-13T00:46:20;5.90;99.90
54846;DHT22;53889;50.084;8.646;2022-11-13T00:49:05;5.90;99.90
54846;DHT22;53889;50.084;8.646;2022-11-13T00:51:51;5.80;99.90
54846;DHT22;53889;50.084;8.646;2022-11-13T00:54:37;5.70;99.90
54846;DHT22;53889;50.084;8.646;2022-11-13T00:57:23;5.70;99.90
54846;DHT22;53889;50.084;8.646;2022-11-13T01:00:10;5.60;99.90
54846;DHT22;53889;50.084;8.646;2022-11-13T01:02:56;5.60;99.90
54846;DHT22;53889;50.084;8.646;2022-11-13T01:05:44;5.70;99.90
54846;DHT22;53889;50.084;8.646;2022-11-13T01:08:30;5.70;99.90
54846;DHT22;53889;50.084;8.646;2022-11-13T01:11:19;5.70;99.90
54846;DHT22;53889;50.084;8.646;2022-11-13T01:14:05;5.80;99.90
54846;DHT22;53889;50.084;8.646;2022-11-13T01:16:51;5.80;99.90
54846;DHT22;53889;50.084;8.646;2022-11-13T01:19:36;5.70;99.90
54846;DHT22;53889;50.084;8.646;2022-11-13T01:22:22;5.70;99.90
54846;DHT22;53889;50.084;8.646;2022-11-13T01:25:08;5.70;99.90
54846;DHT22;53889;50.084;8.646;2022-11-13T01:27:54;5.70;99.90
54846;DHT22;53889;50.084;8.646;2022-11-13T01:30:40;5.60;99.90
54846;DHT22;53889;50.084;8.646;2022-11-13T01:33:25;5.60;99.90
54846;DHT22;53889;50.084;8.646;2022-11-13T01:36:13;5.60;99.90
54846;DHT22;53889;50.084;8.646;2022-11-13T01:38:58;5.60;99.90
54846;DHT22;53889;50.084;8.646;2022-11-13T01:41:44;5.70;99.90
54846;DHT22;53889;50.084;8.646;2022-11-13T01:47:23;5.60;99.90
54846;DHT22;53889;50.084;8.646;2022-11-13T01:50:09;5.70;99.90
54846;DHT22;53889;50.084;8.646;2022-11-13T01:52:58;5.70;99.90
54846;DHT22;53889;50.084;8.646;2022-11-13T01:55:44;5.70;99.90
54846;DHT22;53889;50.084;8.646;2022-11-13T01:58:30;5.60;99.90
54846;DHT22;53889;50.084;8.646;2022-11-13T02:01:16;5.60;99.90
54846;DHT22;53889;50.084;8.646;2022-11-13T02:04:03;5.40;99.90
54846;DHT22;53889;50.084;8.646;2022-11-13T02:06:52;5.30;99.90
54846;DHT22;53889;50.084;8.646;2022-11-13T02:09:40;5.30;99.90
54846;DHT22;53889;50.084;8.646;2022-11-13T02:12:29;5.30;99.90
54846;DHT22;53889;50.084;8.646;2022-11-13T02:15:16;5.40;99.90
54846;DHT22;53889;50.084;8.646;2022-11-13T02:18:03;5.50;99.90
54846;DHT22;53889;50.084;8.646;2022-11-13T02:20:57;5.50;99.90
54846;DHT22;53889;50.084;8.646;2022-11-13T02:23:47;5.60;99.90
54846;DHT22;53889;50.084;8.646;2022-11-13T02:26:36;5.40;99.90
54846;DHT22;53889;50.084;8.646;2022-11-13T02:29:22;5.30;99.90
54846;DHT22;53889;50.084;8.646;2022-11-13T02:32:07;5.40;99.90
54846;DHT22;53889;50.084;8.646;2022-11-13T02:34:53;5.40;99.90
54846;DHT22;53889;50.084;8.646;2022-11-13T02:37:38;5.30;99.90
54846;DHT22;53889;50.084;8.646;2022-11-13T02:40:24;5.30;99.90
54846;DHT22;53889;50.084;8.646;2022-11-13T02:43:12;5.20;99.90
54846;DHT22;53889;50.084;8.646;2022-11-13T02:45:57;5.30;99.90
54846;DHT22;53889;50.084;8.646;2022-11-13T02:48:42;5.20;99.90
54846;DHT22;53889;50.084;8.646;2022-11-13T02:51:28;5.20;99.90
54846;DHT22;53889;50.084;8.646;2022-11-13T02:54:14;5.30;99.90
54846;DHT22;53889;50.084;8.646;2022-11-13T02:56:59;5.30;99.90
54846;DHT22;53889;50.084;8.646;2022-11-13T02:59:46;5.20;99.90
54846;DHT22;53889;50.084;8.646;2022-11-13T03:02:32;5.10;99.90
54846;DHT22;53889;50.084;8.646;2022-11-13T03:05:17;5.10;99.90
54846;DHT22;53889;50.084;8.646;2022-11-13T03:08:03;5.10;99.90
54846;DHT22;53889;50.084;8.646;2022-11-13T03:10:50;5.20;99.90
54846;DHT22;53889;50.084;8.646;2022-11-13T03:13:36;5.10;99.90
54846;DHT22;53889;50.084;8.646;2022-11-13T03:16:23;5.00;99.90
54846;DHT22;53889;50.084;8.646;2022-11-13T03:19:09;5.00;99.90
54846;DHT22;53889;50.084;8.646;2022-11-13T03:21:54;5.00;99.90
54846;DHT22;53889;50.084;8.646;2022-11-13T03:24:39;4.90;99.90
54846;DHT22;53889;50.084;8.646;2022-11-13T03:27:25;4.80;99.90
54846;DHT22;53889;50.084;8.646;2022-11-13T03:30:11;4.80;99.90
54846;DHT22;53889;50.084;8.646;2022-11-13T03:32:58;4.80;99.90
54846;DHT22;53889;50.084;8.646;2022-11-13T03:35:43;4.80;99.90
54846;DHT22;53889;50.084;8.646;2022-11-13T03:38:29;4.80;99.90
54846;DHT22;53889;50.084;8.646;2022-11-13T03:41:14;4.80;99.90
54846;DHT22;53889;50.084;8.646;2022-11-13T03:44:00;4.70;99.90
54846;DHT22;53889;50.084;8.646;2022-11-13T03:46:45;4.80;99.90
54846;DHT22;53889;50.084;8.646;2022-11-13T03:49:32;4.80;99.90
54846;DHT22;53889;50.084;8.646;2022-11-13T03:52:18;4.80;99.90
54846;DHT22;53889;50.084;8.646;2022-11-13T03:55:04;4.90;99.90
54846;DHT22;53889;50.084;8.646;2022-11-13T03:57:49;4.90;99.90
54846;DHT22;53889;50.084;8.646;2022-11-13T04:00:36;4.90;99.90
54846;DHT22;53889;50.084;8.646;2022-11-13T04:03:21;4.70;99.90
54846;DHT22;53889;50.084;8.646;2022-11-13T04:06:08;4.70;99.90
54846;DHT22;53889;50.084;8.646;2022-11-13T04:08:53;4.70;99.90
54846;DHT22;53889;50.084;8.646;2022-11-13T04:11:39;4.70;99.90
54846;DHT22;53889;50.084;8.646;2022-11-13T04:14:24;4.70;99.90
54846;DHT22;53889;50.084;8.646;2022-11-13T04:17:10;4.70;99.90
54846;DHT22;53889;50.084;8.646;2022-11-13T04:19:55;4.70;99.90
54846;DHT22;53889;50.084;8.646;2022-11-13T04:22:42;4.60;99.90
54846;DHT22;53889;50.084;8.646;2022-11-13T04:25:28;4.70;99.90
54846;DHT22;53889;50.084;8.646;2022-11-13T04:28:13;4.70;99.90
54846;DHT22;53889;50.084;8.646;2022-11-13T04:30:59;4.70;99.90
54846;DHT22;53889;50.084;8.646;2022-11-13T04:33:44;4.70;99.90
54846;DHT22;53889;50.084;8.646;2022-11-13T04:36:30;4.70;99.90
54846;DHT22;53889;50.084;8.646;2022-11-13T04:39:17;4.80;99.90
54846;DHT22;53889;50.084;8.646;2022-11-13T04:42:02;4.80;99.90
54846;DHT22;53889;50.084;8.646;2022-11-13T04:45:07;4.70;99.90
54846;DHT22;53889;50.084;8.646;2022-11-13T04:47:52;4.70;99.90
54846;DHT22;53889;50.084;8.646;2022-11-13T04:50:38;4.70;99.90
54846;DHT22;53889;50.084;8.646;2022-11-13T04:53:23;4.70;99.90
54846;DHT22;53889;50.084;8.646;2022-11-13T04:56:10;4.70;99.90
54846;DHT22;53889;50.084;8.646;2022-11-13T04:58:55;4.70;99.90
54846;DHT22;53889;50.084;8.646;2022-11-13T05:01:41;4.70;99.90
54846;DHT22;53889;50.084;8.646;2022-11-13T05:04:27;4.60;99.90
54846;DHT22;53889;50.084;8.646;2022-11-13T05:07:12;4.70;99.90
54846;DHT22;53889;50.084;8.646;2022-11-13T05:09:58;4.50;99.90
54846;DHT22;53889;50.084;8.646;2022-11-13T05:12:45;4.40;99.90
54846;DHT22;53889;50.084;8.646;2022-11-13T05:15:30;4.40;99.90
54846;DHT22;53889;50.084;8.646;2022-11-13T05:18:18;4.50;99.90
54846;DHT22;53889;50.084;8.646;2022-11-13T05:21:04;4.50;99.90
54846;DHT22;53889;50.084;8.646;2022-11-13T05:23:49;4.50;99.90
54846;DHT22;53889;50.084;8.646;2022-11-13T05:26:36;4.40;99.90
54846;DHT22;53889;50.084;8.646;2022-11-13T05:29:22;4.30;99.90
54846;DHT22;53889;50.084;8.646;2022-11-13T05:32:08;4.30;99.90
54846;DHT22;53889;50.084;8.646;2022-11-13T05:34:53;4.40;99.90
54846;DHT22;53889;50.084;8.646;2022-11-13T05:37:39;4.30;99.90
54846;DHT22;53889;50.084;8.646;2022-11-13T05:40:24;4.30;99.90
54846;DHT22;53889;50.084;8.646;2022-11-13T05:43:10;4.30;99.90
54846;DHT22;53889;50.084;8.646;2022-11-13T05:46:01;4.20;99.90
54846;DHT22;53889;50.084;8.646;2022-11-13T05:48:51;4.20;99.90
54846;DHT22;53889;50.084;8.646;2022-11-13T05:51:37;4.20;99.90
54846;DHT22;53889;50.084;8.646;2022-11-13T05:54:23;4.20;99.90
54846;DHT22;53889;50.084;8.646;2022-11-13T05:57:08;4.30;99.90
54846;DHT22;53889;50.084;8.646;2022-11-13T05:59:53;4.20;99.90
54846;DHT22;53889;50.084;8.646;2022-11-13T06:02:40;4.20;99.90
54846;DHT22;53889;50.084;8.646;2022-11-13T06:05:26;4.10;99.90
54846;DHT22;53889;50.084;8.646;2022-11-13T06:08:11;4.20;99.90
54846;DHT22;53889;50.084;8.646;2022-11-13T06:10:58;4.20;99.90
54846;DHT22;53889;50.084;8.646;2022-11-13T06:13:44;4.20;99.90
54846;DHT22;53889;50.084;8.646;2022-11-13T06:16:32;4.20;99.90
54846;DHT22;53889;50.084;8.646;2022-11-13T06:19:19;4.10;99.90
54846;DHT22;53889;50.084;8.646;2022-11-13T06:22:05;4.10;99.90
54846;DHT22;53889;50.084;8.646;2022-11-13T06:24:50;4.00;99.90
54846;DHT22;53889;50.084;8.646;2022-11-13T06:27:36;4.00;99.90
54846;DHT22;53889;50.084;8.646;2022-11-13T06:30:21;3.90;99.90
54846;DHT22;53889;50.084;8.646;2022-11-13T06:33:07;4.00;99.90
54846;DHT22;53889;50.084;8.646;2022-11-13T06:35:54;3.90;99.90
54846;DHT22;53889;50.084;8.646;2022-11-13T06:38:40;4.00;99.90
54846;DHT22;53889;50.084;8.646;2022-11-13T06:41:29;4.00;99.90
54846;DHT22;53889;50.084;8.646;2022-11-13T06:44:14;4.00;99.90
54846;DHT22;53889;50.084;8.646;2022-11-13T06:47:00;4.00;99.90
54846;DHT22;53889;50.084;8.646;2022-11-13T06:49:45;4.00;99.90
54846;DHT22;53889;50.084;8.646;2022-11-13T06:52:33;3.90;99.90
54846;DHT22;53889;50.084;8.646;2022-11-13T06:55:19;3.90;99.90
54846;DHT22;53889;50.084;8.646;2022-11-13T06:58:04;3.90;99.90
54846;DHT22;53889;50.084;8.646;2022-11-13T07:00:50;4.00;99.90
54846;DHT22;53889;50.084;8.646;2022-11-13T07:03:36;4.00;99.90
54846;DHT22;53889;50.084;8.646;2022-11-13T07:06:23;4.00;99.90
54846;DHT22;53889;50.084;8.646;2022-11-13T07:09:10;4.10;99.90
54846;DHT22;53889;50.084;8.646;2022-11-13T07:11:55;4.10;99.90
54846;DHT22;53889;50.084;8.646;2022-11-13T07:14:41;4.00;99.90
54846;DHT22;53889;50.084;8.646;2022-11-13T07:17:27;4.10;99.90
54846;DHT22;53889;50.084;8.646;2022-11-13T07:20:12;4.10;99.90
54846;DHT22;53889;50.084;8.646;2022-11-13T07:22:59;4.10;99.90
54846;DHT22;53889;50.084;8.646;2022-11-13T07:25:46;4.10;99.90
54846;DHT22;53889;50.084;8.646;2022-11-13T07:28:31;4.20;99.90
54846;DHT22;53889;50.084;8.646;2022-11-13T07:31:17;4.20;99.90
54846;DHT22;53889;50.084;8.646;2022-11-13T07:34:02;4.20;99.90
54846;DHT22;53889;50.084;8.646;2022-11-13T07:36:50;4.20;99.90
54846;DHT22;53889;50.084;8.646;2022-11-13T07:39:35;4.30;99.90
54846;DHT22;53889;50.084;8.646;2022-11-13T07:42:22;4.30;99.90
54846;DHT22;53889;50.084;8.646;2022-11-13T07:45:08;4.30;99.90
54846;DHT22;53889;50.084;8.646;2022-11-13T07:47:56;4.40;99.90
54846;DHT22;53889;50.084;8.646;2022-11-13T07:50:42;4.40;99.90
54846;DHT22;53889;50.084;8.646;2022-11-13T07:53:28;4.50;99.90
54846;DHT22;53889;50.084;8.646;2022-11-13T07:56:13;4.60;99.90
54846;DHT22;53889;50.084;8.646;2022-11-13T07:59:00;4.60;99.90
54846;DHT22;53889;50.084;8.646;2022-11-13T08:01:45;4.60;99.90
54846;DHT22;53889;50.084;8.646;2022-11-13T08:04:31;4.70;99.90
54846;DHT22;53889;50.084;8.646;2022-11-13T08:07:16;4.70;99.90
54846;DHT22;53889;50.084;8.646;2022-11-13T08:10:02;4.80;99.90
54846;DHT22;53889;50.084;8.646;2022-11-13T08:12:48;4.80;99.90
54846;DHT22;53889;50.084;8.646;2022-11-13T08:15:35;5.00;99.90
54846;DHT22;53889;50.084;8.646;2022-11-13T08:18:20;5.10;99.90
54846;DHT22;53889;50.084;8.646;2022-11-13T08:21:05;5.10;99.90
54846;DHT22;53889;50.084;8.646;2022-11-13T08:23:51;5.20;99.90
54846;DHT22;53889;50.084;8.646;2022-11-13T08:26:37;5.30;99.90
54846;DHT22;53889;50.084;8.646;2022-11-13T08:29:22;5.40;99.90
54846;DHT22;53889;50.084;8.646;2022-11-13T08:32:09;5.50;99.90
54846;DHT22;53889;50.084;8.646;2022-11-13T08:34:57;5.60;99.90
54846;DHT22;53889;50.084;8.646;2022-11-13T08:37:43;5.60;99.90
54846;DHT22;53889;50.084;8.646;2022-11-13T08:40:29;5.70;99.90
54846;DHT22;53889;50.084;8.646;2022-11-13T08:43:14;5.70;99.90
54846;DHT22;53889;50.084;8.646;2022-11-13T08:46:00;5.80;99.90
54846;DHT22;53889;50.084;8.646;2022-11-13T08:48:46;5.80;99.90
54846;DHT22;53889;50.084;8.646;2022-11-13T08:51:32;5.90;99.90
54846;DHT22;53889;50.084;8.646;2022-11-13T08:54:17;6.00;99.90
54846;DHT22;53889;50.084;8.646;2022-11-13T08:57:04;6.00;99.90
54846;DHT22;53889;50.084;8.646;2022-11-13T08:59:49;6.10;99.90
54846;DHT22;53889;50.084;8.646;2022-11-13T09:02:35;6.20;99.90
54846;DHT22;53889;50.084;8.646;2022-11-13T09:05:22;6.50;99.90
54846;DHT22;53889;50.084;8.646;2022-11-13T09:08:08;7.70;99.90
54846;DHT22;53889;50.084;8.646;2022-11-13T09:10:54;9.30;99.90
54846;DHT22;53889;50.084;8.646;2022-11-13T09:13:39;11.00;99.90
54846;DHT22;53889;50.084;8.646;2022-11-13T09:16:25;11.70;99.90
54846;DHT22;53889;50.084;8.646;2022-11-13T09:19:10;13.40;99.90
54846;DHT22;53889;50.084;8.646;2022-11-13T09:21:57;15.10;99.90
54846;DHT22;53889;50.084;8.646;2022-11-13T09:24:43;16.10;97.00
54846;DHT22;53889;50.084;8.646;2022-11-13T09:27:29;16.30;95.50
54846;DHT22;53889;50.084;8.646;2022-11-13T09:30:15;16.60;95.30
54846;DHT22;53889;50.084;8.646;2022-11-13T09:33:01;17.30;93.90
54846;DHT22;53889;50.084;8.646;2022-11-13T09:35:46;17.20;92.80
54846;DHT22;53889;50.084;8.646;2022-11-13T09:38:33;16.80;93.60
54846;DHT22;53889;50.084;8.646;2022-11-13T09:41:21;16.80;93.00
54846;DHT22;53889;50.084;8.646;2022-11-13T09:44:13;17.00;92.80
54846;DHT22;53889;50.084;8.646;2022-11-13T09:47:07;16.50;93.00
54846;DHT22;53889;50.084;8.646;2022-11-13T09:49:59;16.60;93.40
54846;DHT22;53889;50.084;8.646;2022-11-13T09:52:47;16.40;93.80
54846;DHT22;53889;50.084;8.646;2022-11-13T09:55:39;17.10;93.20
54846;DHT22;53889;50.084;8.646;2022-11-13T09:58:32;17.80;92.20
54846;DHT22;53889;50.084;8.646;2022-11-13T10:01:27;18.40;91.30
54846;DHT22;53889;50.084;8.646;2022-11-13T10:04:15;18.70;90.70
54846;DHT22;53889;50.084;8.646;2022-11-13T10:07:13;18.80;90.00
54846;DHT22;53889;50.084;8.646;2022-11-13T10:10:16;19.20;88.60
54846;DHT22;53889;50.084;8.646;2022-11-13T10:13:09;19.40;87.50
54846;DHT22;53889;50.084;8.646;2022-11-13T10:16:01;19.70;85.50
54846;DHT22;53889;50.084;8.646;2022-11-13T10:18:49;20.30;83.20
54846;DHT22;53889;50.084;8.646;2022-11-13T10:21:38;19.40;83.10
54846;DHT22;53889;50.084;8.646;2022-11-13T10:24:30;18.90;84.40
54846;DHT22;53889;50.084;8.646;2022-11-13T10:27:18;18.90;84.80
54846;DHT22;53889;50.084;8.646;2022-11-13T10:30:10;19.10;84.10
54846;DHT22;53889;50.084;8.646;2022-11-13T10:33:02;19.60;81.80
54846;DHT22;53889;50.084;8.646;2022-11-13T10:35:56;19.60;81.20
54846;DHT22;53889;50.084;8.646;2022-11-13T10:38:46;19.20;82.10
54846;DHT22;53889;50.084;8.646;2022-11-13T10:41:44;19.30;81.60
54846;DHT22;53889;50.084;8.646;2022-11-13T10:44:34;19.70;80.50
54846;DHT22;53889;50.084;8.646;2022-11-13T10:47:22;20.00;80.10
54846;DHT22;53889;50.084;8.646;2022-11-13T10:50:09;20.20;79.50
54846;DHT22;53889;50.084;8.646;2022-11-13T10:52:56;20.30;78.50
54846;DHT22;53889;50.084;8.646;2022-11-13T10:55:42;20.60;78.30
54846;DHT22;53889;50.084;8.646;2022-11-13T10:58:27;20.40;78.50
54846;DHT22;53889;50.084;8.646;2022-11-13T11:01:13;20.90;77.30
54846;DHT22;53889;50.084;8.646;2022-11-13T11:04:02;20.60;76.30
54846;DHT22;53889;50.084;8.646;2022-11-13T11:06:49;20.60;76.40
54846;DHT22;53889;50.084;8.646;2022-11-13T11:09:36;20.60;76.10
54846;DHT22;53889;50.084;8.646;2022-11-13T11:12:23;20.90;75.70
54846;DHT22;53889;50.084;8.646;2022-11-13T11:15:19;21.10;75.50
54846;DHT22;53889;50.084;8.646;2022-11-13T11:18:10;21.20;74.80
54846;DHT22;53889;50.084;8.646;2022-11-13T11:21:00;21.50;73.90
54846;DHT22;53889;50.084;8.646;2022-11-13T11:23:49;21.50;74.70
54846;DHT22;53889;50.084;8.646;2022-11-13T11:26:41;21.60;73.80
54846;DHT22;53889;50.084;8.646;2022-11-13T11:29:32;21.50;74.00
54846;DHT22;53889;50.084;8.646;2022-11-13T11:32:26;21.60;74.00
54846;DHT22;53889;50.084;8.646;2022-11-13T11:35:17;21.80;73.30
54846;DHT22;53889;50.084;8.646;2022-11-13T11:38:09;22.20;73.00
54846;DHT22;53889;50.084;8.646;2022-11-13T11:41:08;22.60;71.20
54846;DHT22;53889;50.084;8.646;2022-11-13T11:43:59;22.80;69.60
54846;DHT22;53889;50.084;8.646;2022-11-13T11:46:49;22.90;68.60
54846;DHT22;53889;50.084;8.646;2022-11-13T11:49:34;22.30;67.50
54846;DHT22;53889;50.084;8.646;2022-11-13T11:52:48;22.40;66.60
54846;DHT22;53889;50.084;8.646;2022-11-13T11:55:56;21.70;69.80
54846;DHT22;53889;50.084;8.646;2022-11-13T11:59:08;21.90;70.40
54846;DHT22;53889;50.084;8.646;2022-11-13T12:05:21;21.90;69.70
54846;DHT22;53889;50.084;8.646;2022-11-13T12:08:16;21.30;71.50
54846;DHT22;53889;50.084;8.646;2022-11-13T12:11:13;20.30;72.80
54846;DHT22;53889;50.084;8.646;2022-11-13T12:14:10;20.10;75.10
54846;DHT22;53889;50.084;8.646;2022-11-13T12:20:22;19.90;74.90
54846;DHT22;53889;50.084;8.646;2022-11-13T12:23:24;20.50;75.50
54846;DHT22;53889;50.084;8.646;2022-11-13T12:26:20;19.90;76.20
54846;DHT22;53889;50.084;8.646;2022-11-13T12:29:26;19.50;77.50
54846;DHT22;53889;50.084;8.646;2022-11-13T12:32:24;19.10;79.50
54846;DHT22;53889;50.084;8.646;2022-11-13T12:35:15;19.20;79.00
54846;DHT22;53889;50.084;8.646;2022-11-13T12:38:10;19.50;77.80
54846;DHT22;53889;50.084;8.646;2022-11-13T12:41:03;20.00;76.30
54846;DHT22;53889;50.084;8.646;2022-11-13T12:44:21;20.10;75.20
54846;DHT22;53889;50.084;8.646;2022-11-13T12:47:07;20.60;73.70
54846;DHT22;53889;50.084;8.646;2022-11-13T12:50:00;20.70;73.20
54846;DHT22;53889;50.084;8.646;2022-11-13T12:52:57;21.20;72.80
54846;DHT22;53889;50.084;8.646;2022-11-13T12:55:52;21.30;71.90
54846;DHT22;53889;50.084;8.646;2022-11-13T12:58:39;21.60;71.10
54846;DHT22;53889;50.084;8.646;2022-11-13T13:01:29;20.80;70.10
54846;DHT22;53889;50.084;8.646;2022-11-13T13:04:30;20.50;71.00
54846;DHT22;53889;50.084;8.646;2022-11-13T13:07:33;21.00;70.40
54846;DHT22;53889;50.084;8.646;2022-11-13T13:10:28;21.50;69.60
54846;DHT22;53889;50.084;8.646;2022-11-13T13:13:22;21.90;69.60
54846;DHT22;53889;50.084;8.646;2022-11-13T13:16:09;21.70;70.20
54846;DHT22;53889;50.084;8.646;2022-11-13T13:19:07;21.70;69.30
54846;DHT22;53889;50.084;8.646;2022-11-13T13:21:52;22.10;67.30
54846;DHT22;53889;50.084;8.646;2022-11-13T13:24:38;22.20;66.80
54846;DHT22;53889;50.084;8.646;2022-11-13T13:27:25;22.40;66.50
54846;DHT22;53889;50.084;8.646;2022-11-13T13:30:15;22.50;65.70
54846;DHT22;53889;50.084;8.646;2022-11-13T13:33:13;22.80;65.20
54846;DHT22;53889;50.084;8.646;2022-11-13T13:36:08;22.50;65.60
54846;DHT22;53889;50.084;8.646;2022-11-13T13:39:01;22.50;65.80
54846;DHT22;53889;50.084;8.646;2022-11-13T13:41:57;22.30;65.50
54846;DHT22;53889;50.084;8.646;2022-11-13T13:45:04;21.80;66.50
54846;DHT22;53889;50.084;8.646;2022-11-13T13:47:53;20.70;68.30
54846;DHT22;53889;50.084;8.646;2022-11-13T13:50:44;19.70;71.00
54846;DHT22;53889;50.084;8.646;2022-11-13T13:53:33;19.00;72.70
54846;DHT22;53889;50.084;8.646;2022-11-13T13:56:20;18.20;74.90
54846;DHT22;53889;50.084;8.646;2022-11-13T13:59:13;17.80;76.50
54846;DHT22;53889;50.084;8.646;2022-11-13T14:02:02;17.40;78.20
54846;DHT22;53889;50.084;8.646;2022-11-13T14:04:49;17.20;79.60
54846;DHT22;53889;50.084;8.646;2022-11-13T14:07:34;17.00;80.30
54846;DHT22;53889;50.084;8.646;2022-11-13T14:10:24;16.80;81.70
54846;DHT22;53889;50.084;8.646;2022-11-13T14:13:11;16.70;82.70
54846;DHT22;53889;50.084;8.646;2022-11-13T14:16:01;16.60;83.80
54846;DHT22;53889;50.084;8.646;2022-11-13T14:18:47;16.50;84.50
54846;DHT22;53889;50.084;8.646;2022-11-13T14:21:33;16.40;84.40
54846;DHT22;53889;50.084;8.646;2022-11-13T14:24:21;16.40;84.50
54846;DHT22;53889;50.084;8.646;2022-11-13T14:27:13;16.40;85.10
54846;DHT22;53889;50.084;8.646;2022-11-13T14:30:01;16.50;85.20
54846;DHT22;53889;50.084;8.646;2022-11-13T14:32:47;16.40;85.10
54846;DHT22;53889;50.084;8.646;2022-11-13T14:35:33;16.20;86.00
54846;DHT22;53889;50.084;8.646;2022-11-13T14:38:19;16.30;86.10
54846;DHT22;53889;50.084;8.646;2022-11-13T14:41:17;16.10;86.10
54846;DHT22;53889;50.084;8.646;2022-11-13T14:44:05;16.00;86.40
54846;DHT22;53889;50.084;8.646;2022-11-13T14:46:58;16.10;85.90
54846;DHT22;53889;50.084;8.646;2022-11-13T14:49:43;15.80;86.80
54846;DHT22;53889;50.084;8.646;2022-11-13T14:52:29;15.70;87.70
54846;DHT22;53889;50.084;8.646;2022-11-13T14:55:26;15.70;87.60
54846;DHT22;53889;50.084;8.646;2022-11-13T14:58:12;15.70;87.70
54846;DHT22;53889;50.084;8.646;2022-11-13T15:01:10;15.70;87.80
54846;DHT22;53889;50.084;8.646;2022-11-13T15:03:56;15.60;88.10
54846;DHT22;53889;50.084;8.646;2022-11-13T15:06:42;15.50;88.60
54846;DHT22;53889;50.084;8.646;2022-11-13T15:09:29;15.40;89.60
54846;DHT22;53889;50.084;8.646;2022-11-13T15:12:14;15.30;88.80
54846;DHT22;53889;50.084;8.646;2022-11-13T15:15:00;15.10;89.50
54846;DHT22;53889;50.084;8.646;2022-11-13T15:17:48;15.00;90.10
54846;DHT22;53889;50.084;8.646;2022-11-13T15:20:34;15.00;90.30
54846;DHT22;53889;50.084;8.646;2022-11-13T15:23:23;14.90;90.90
54846;DHT22;53889;50.084;8.646;2022-11-13T15:26:10;14.80;91.50
54846;DHT22;53889;50.084;8.646;2022-11-13T15:28:56;14.70;92.00
54846;DHT22;53889;50.084;8.646;2022-11-13T15:31:42;14.60;92.70
54846;DHT22;53889;50.084;8.646;2022-11-13T15:34:29;14.50;93.30
54846;DHT22;53889;50.084;8.646;2022-11-13T15:37:15;14.40;93.80
54846;DHT22;53889;50.084;8.646;2022-11-13T15:40:01;14.10;94.60
54846;DHT22;53889;50.084;8.646;2022-11-13T15:42:48;13.90;95.20
54846;DHT22;53889;50.084;8.646;2022-11-13T15:45:33;13.80;95.40
54846;DHT22;53889;50.084;8.646;2022-11-13T15:48:18;13.70;96.30
54846;DHT22;53889;50.084;8.646;2022-11-13T15:51:14;13.40;96.90
54846;DHT22;53889;50.084;8.646;2022-11-13T15:54:01;13.20;97.40
54846;DHT22;53889;50.084;8.646;2022-11-13T15:56:46;12.90;98.50
54846;DHT22;53889;50.084;8.646;2022-11-13T15:59:32;12.90;99.20
54846;DHT22;53889;50.084;8.646;2022-11-13T16:02:18;12.90;99.30
54846;DHT22;53889;50.084;8.646;2022-11-13T16:05:03;12.90;99.70
54846;DHT22;53889;50.084;8.646;2022-11-13T16:07:50;12.80;99.90
54846;DHT22;53889;50.084;8.646;2022-11-13T16:10:36;12.70;99.90
54846;DHT22;53889;50.084;8.646;2022-11-13T16:13:21;12.60;99.90
54846;DHT22;53889;50.084;8.646;2022-11-13T16:16:08;12.30;99.90
54846;DHT22;53889;50.084;8.646;2022-11-13T16:18:57;12.50;99.90
54846;DHT22;53889;50.084;8.646;2022-11-13T16:21:43;12.40;99.90
54846;DHT22;53889;50.084;8.646;2022-11-13T16:24:29;12.30;99.90
54846;DHT22;53889;50.084;8.646;2022-11-13T16:27:20;12.40;99.90
54846;DHT22;53889;50.084;8.646;2022-11-13T16:30:13;12.40;99.90
54846;DHT22;53889;50.084;8.646;2022-11-13T16:32:58;12.50;99.90
54846;DHT22;53889;50.084;8.646;2022-11-13T16:35:48;12.40;99.90
54846;DHT22;53889;50.084;8.646;2022-11-13T16:38:34;12.40;99.90
54846;DHT22;53889;50.084;8.646;2022-11-13T16:41:20;12.20;99.90
54846;DHT22;53889;50.084;8.646;2022-11-13T16:44:06;12.20;99.90
54846;DHT22;53889;50.084;8.646;2022-11-13T16:46:52;12.20;99.90
54846;DHT22;53889;50.084;8.646;2022-11-13T16:49:38;12.00;99.90
54846;DHT22;53889;50.084;8.646;2022-11-13T16:52:24;11.90;99.90
54846;DHT22;53889;50.084;8.646;2022-11-13T16:55:10;11.80;99.90
54846;DHT22;53889;50.084;8.646;2022-11-13T16:57:57;11.70;99.90
54846;DHT22;53889;50.084;8.646;2022-11-13T17:00:43;11.60;99.90
54846;DHT22;53889;50.084;8.646;2022-11-13T17:03:28;11.40;99.90
54846;DHT22;53889;50.084;8.646;2022-11-13T17:06:19;11.40;99.90
54846;DHT22;53889;50.084;8.646;2022-11-13T17:09:05;11.30;99.90
54846;DHT22;53889;50.084;8.646;2022-11-13T17:11:50;11.20;99.90
54846;DHT22;53889;50.084;8.646;2022-11-13T17:14:37;11.00;99.90
54846;DHT22;53889;50.084;8.646;2022-11-13T17:17:23;10.80;99.90
54846;DHT22;53889;50.084;8.646;2022-11-13T17:20:09;10.90;99.90
54846;DHT22;53889;50.084;8.646;2022-11-13T17:22:54;10.70;99.90
54846;DHT22;53889;50.084;8.646;2022-11-13T17:25:40;10.70;99.90
54846;DHT22;53889;50.084;8.646;2022-11-13T17:28:26;10.50;99.90
54846;DHT22;53889;50.084;8.646;2022-11-13T17:31:13;10.50;99.90
54846;DHT22;53889;50.084;8.646;2022-11-13T17:33:58;10.40;99.90
54846;DHT22;53889;50.084;8.646;2022-11-13T17:36:44;10.40;99.90
54846;DHT22;53889;50.084;8.646;2022-11-13T17:39:29;10.30;99.90
54846;DHT22;53889;50.084;8.646;2022-11-13T17:42:15;10.10;99.90
54846;DHT22;53889;50.084;8.646;2022-11-13T17:45:00;9.90;99.90
54846;DHT22;53889;50.084;8.646;2022-11-13T17:47:48;9.80;99.90
54846;DHT22;53889;50.084;8.646;2022-11-13T17:50:34;9.80;99.90
54846;DHT22;53889;50.084;8.646;2022-11-13T17:53:19;9.70;99.90
54846;DHT22;53889;50.084;8.646;2022-11-13T17:56:07;9.60;99.90
54846;DHT22;53889;50.084;8.646;2022-11-13T17:58:53;9.50;99.90
54846;DHT22;53889;50.084;8.646;2022-11-13T18:01:38;9.30;99.90